Time;durP1;ratioP1;P1;durP2;ratioP2;P2;SDS_P1;SDS_P2;PMS_P1;PMS_P2;Temp;Humidity;BMP_temperature;BMP_pressure;BME280_temperature;BME280_humidity;BME280_pressure;Samples;Min_cycle;Max_cycle;Signal;HPM_P1;HPM_P2
2023/08/26 00:01:35;;;;;;;;;3.75;3.25;;;;;;;;5031121;28;8820;-80
2023/08/26 00:04:02;;;;;;;;;4.50;3.25;;;;;;;;5030664;28;8882;-80
2023/08/26 00:06:29;;;;;;;;;3.75;3.75;;;;;;;;5031146;28;8846;-80
2023/08/26 00:08:57;;;;;;;;;2.00;2.00;;;;;;;;5032838;28;8958;-82
2023/08/26 00:11:24;;;;;;;;;4.00;3.00;;;;;;;;5032564;28;9656;-80
2023/08/26 00:13:51;;;;;;;;;3.00;3.00;;;;;;;;5035374;28;8876;-80
2023/08/26 00:16:20;;;;;;;;;3.25;2.00;;;;;;;;5036329;28;8864;-78
2023/08/26 00:18:49;;;;;;;;;2.75;2.75;;;;;;;;5036304;28;8903;-79
2023/08/26 00:21:21;;;;;;;;;3.00;3.00;;;;;;;;5032041;28;9002;-80
2023/08/26 00:23:48;;;;;;;;;3.25;3.25;;;;;;;;5030871;28;8888;-79
2023/08/26 00:26:17;;;;;;;;;5.00;3.75;;;;;;;;5030948;28;8836;-80
2023/08/26 00:28:44;;;;;;;;;5.25;3.50;;;;;;;;5030264;28;8997;-83
2023/08/26 00:31:12;;;;;;;;;3.75;3.75;;;;;;;;5030089;28;8820;-80
2023/08/26 00:33:40;;;;;;;;;3.00;3.00;;;;;;;;5030319;28;8878;-80
2023/08/26 00:36:08;;;;;;;;;2.25;2.25;;;;;;;;5030050;28;8902;-79
2023/08/26 00:38:35;;;;;;;;;2.25;2.25;;;;;;;;5030308;28;8846;-79
2023/08/26 00:41:02;;;;;;;;;2.00;2.00;;;;;;;;5030647;28;8865;-80
2023/08/26 00:43:30;;;;;;;;;4.00;4.00;;;;;;;;5029729;28;8978;-80
2023/08/26 00:45:57;;;;;;;;;4.50;3.00;;;;;;;;5030774;28;8863;-79
2023/08/26 00:48:24;;;;;;;;;3.00;3.00;;;;;;;;5030743;28;8852;-81
2023/08/26 00:50:55;;;;;;;;;2.75;2.75;;;;;;;;5031449;28;8856;-79
2023/08/26 00:53:23;;;;;;;;;4.00;4.00;;;;;;;;5029129;28;8875;-79
2023/08/26 00:55:52;;;;;;;;;3.00;3.00;;;;;;;;5029862;28;9681;-80
2023/08/26 00:58:20;;;;;;;;;4.00;4.00;;;;;;;;5029576;28;8852;-79
2023/08/26 01:00:48;;;;;;;;;2.50;2.50;;;;;;;;5030570;28;8770;-79
2023/08/26 01:03:17;;;;;;;;;3.25;2.00;;;;;;;;5029864;28;9657;-80
2023/08/26 01:05:44;;;;;;;;;3.00;3.00;;;;;;;;5029915;28;8880;-80
2023/08/26 01:08:14;;;;;;;;;3.00;3.00;;;;;;;;5029198;28;8844;-80
2023/08/26 01:10:51;;;;;;;;;3.75;3.75;;;;;;;;5029926;28;8970;-80
2023/08/26 01:13:22;;;;;;;;;2.50;2.50;;;;;;;;5018093;28;8867;-80
2023/08/26 01:15:51;;;;;;;;;3.00;3.00;;;;;;;;5029082;28;8887;-80
2023/08/26 01:18:19;;;;;;;;;4.00;4.00;;;;;;;;5021855;28;8858;-81
2023/08/26 01:20:46;;;;;;;;;2.00;2.00;;;;;;;;5025594;28;8886;-80
2023/08/26 01:23:20;;;;;;;;;3.50;3.50;;;;;;;;5029522;28;9627;-80
2023/08/26 01:25:49;;;;;;;;;3.75;3.75;;;;;;;;5029276;28;8991;-80
2023/08/26 01:28:16;;;;;;;;;2.00;2.00;;;;;;;;5029741;28;8868;-80
2023/08/26 01:30:43;;;;;;;;;2.75;2.75;;;;;;;;5028424;28;8815;-78
2023/08/26 01:33:19;;;;;;;;;3.75;3.75;;;;;;;;5029444;28;8872;-80
2023/08/26 01:35:48;;;;;;;;;3.00;3.00;;;;;;;;5029109;28;8976;-80
2023/08/26 01:38:17;;;;;;;;;3.00;3.00;;;;;;;;5030014;28;8860;-80
2023/08/26 01:40:52;;;;;;;;;4.25;3.00;;;;;;;;5029659;28;8888;-80
2023/08/26 01:43:21;;;;;;;;;3.00;3.00;;;;;;;;5030907;28;8894;-80
2023/08/26 01:45:48;;;;;;;;;3.00;3.00;;;;;;;;5032930;28;8879;-79
2023/08/26 01:48:15;;;;;;;;;2.00;2.00;;;;;;;;5034084;28;8841;-80
2023/08/26 01:50:42;;;;;;;;;2.75;2.75;;;;;;;;5033835;28;8882;-80
2023/08/26 01:53:09;;;;;;;;;3.50;3.50;;;;;;;;5034332;28;8829;-80
2023/08/26 01:55:37;;;;;;;;;3.75;2.00;;;;;;;;5033357;28;8984;-80
2023/08/26 01:58:05;;;;;;;;;2.25;2.25;;;;;;;;5030879;28;8851;-79
2023/08/26 02:00:33;;;;;;;;;6.00;3.00;;;;;;;;5028554;28;8765;-80
2023/08/26 02:03:01;;;;;;;;;2.25;2.25;;;;;;;;5029562;28;8833;-79
2023/08/26 02:05:28;;;;;;;;;3.67;3.67;;;;;;;;5029412;28;8864;-82
2023/08/26 02:07:55;;;;;;;;;3.00;2.50;;;;;;;;5028246;28;9655;-79
2023/08/26 02:10:22;;;;;;;;;1.25;1.25;;;;;;;;5019904;28;8858;-80
2023/08/26 02:12:49;;;;;;;;;1.50;1.50;;;;;;;;5025085;28;8860;-80
2023/08/26 02:15:18;;;;;;;;;3.00;2.00;;;;;;;;5028782;28;8856;-80
2023/08/26 02:17:45;;;;;;;;;3.00;3.00;;;;;;;;5028290;28;8938;-80
2023/08/26 02:20:12;;;;;;;;;2.75;2.75;;;;;;;;5028447;28;9715;-80
2023/08/26 02:22:40;;;;;;;;;2.75;2.00;;;;;;;;5028351;28;8864;-79
2023/08/26 02:25:10;;;;;;;;;2.00;2.00;;;;;;;;5029420;28;8883;-79
2023/08/26 02:27:37;;;;;;;;;3.50;3.50;;;;;;;;5030614;28;8850;-80
2023/08/26 02:30:05;;;;;;;;;1.00;1.00;;;;;;;;5029994;28;8890;-79
2023/08/26 02:32:37;;;;;;;;;3.00;2.00;;;;;;;;5028123;28;8956;-79
2023/08/26 02:35:06;;;;;;;;;2.00;2.00;;;;;;;;5028273;28;8856;-79
2023/08/26 02:37:34;;;;;;;;;2.00;2.00;;;;;;;;5028450;28;8879;-79
2023/08/26 02:40:05;;;;;;;;;2.25;2.25;;;;;;;;5028036;28;8868;-79
2023/08/26 02:42:34;;;;;;;;;2.50;2.50;;;;;;;;5017663;28;8863;-79
2023/08/26 02:45:10;;;;;;;;;1.50;1.50;;;;;;;;5027836;28;8978;-79
2023/08/26 02:47:38;;;;;;;;;3.75;2.00;;;;;;;;5028372;28;8872;-80
2023/08/26 02:50:06;;;;;;;;;2.00;2.00;;;;;;;;5027894;28;9006;-79
2023/08/26 02:52:33;;;;;;;;;2.00;2.00;;;;;;;;5025920;28;8840;-79
2023/08/26 02:55:03;;;;;;;;;2.25;2.25;;;;;;;;5027880;28;8890;-79
2023/08/26 02:57:30;;;;;;;;;2.25;2.00;;;;;;;;5027420;28;8871;-79
2023/08/26 02:59:57;;;;;;;;;1.00;1.00;;;;;;;;5027601;28;8865;-79
2023/08/26 03:02:25;;;;;;;;;2.00;2.00;;;;;;;;5018462;28;9714;-78
2023/08/26 03:04:54;;;;;;;;;1.00;1.00;;;;;;;;5028007;28;8864;-78
2023/08/26 03:07:21;;;;;;;;;1.25;1.25;;;;;;;;5027262;28;8856;-79
2023/08/26 03:09:48;;;;;;;;;1.50;1.50;;;;;;;;5021178;28;8847;-79
2023/08/26 03:12:15;;;;;;;;;2.00;2.00;;;;;;;;5022373;28;8887;-79
2023/08/26 03:14:42;;;;;;;;;1.75;1.75;;;;;;;;5028009;28;9702;-80
2023/08/26 03:17:11;;;;;;;;;1.50;1.00;;;;;;;;5028191;28;8860;-78
2023/08/26 03:19:41;;;;;;;;;1.50;1.50;;;;;;;;5028857;28;8856;-80
2023/08/26 03:22:11;;;;;;;;;1.75;1.75;;;;;;;;5029741;28;8852;-79
2023/08/26 03:24:39;;;;;;;;;1.50;1.50;;;;;;;;5030668;28;8888;-79
2023/08/26 03:27:07;;;;;;;;;2.00;2.00;;;;;;;;5032880;28;8941;-79
2023/08/26 03:29:34;;;;;;;;;1.00;1.00;;;;;;;;5032840;28;8844;-79
2023/08/26 03:32:04;;;;;;;;;2.00;2.00;;;;;;;;5024239;28;8850;-78
2023/08/26 03:34:33;;;;;;;;;3.00;1.50;;;;;;;;5034054;28;8848;-80
2023/08/26 03:37:00;;;;;;;;;1.25;1.25;;;;;;;;5023022;28;8938;-79
2023/08/26 03:39:30;;;;;;;;;2.00;2.00;;;;;;;;5026850;28;9016;-79
2023/08/26 03:41:57;;;;;;;;;1.50;1.50;;;;;;;;5031814;28;8945;-79
2023/08/26 03:44:25;;;;;;;;;1.00;1.00;;;;;;;;5031988;28;8868;-78
2023/08/26 03:46:52;;;;;;;;;1.00;1.00;;;;;;;;5031076;28;8852;-79
2023/08/26 03:49:19;;;;;;;;;2.00;2.00;;;;;;;;5029060;28;8860;-79
2023/08/26 03:51:46;;;;;;;;;2.00;2.00;;;;;;;;5030632;28;8898;-79
2023/08/26 03:54:13;;;;;;;;;1.00;1.00;;;;;;;;5029927;28;8859;-79
2023/08/26 03:56:42;;;;;;;;;1.00;1.00;;;;;;;;5029890;28;8983;-79
2023/08/26 03:59:10;;;;;;;;;2.00;2.00;;;;;;;;5030123;28;9671;-81
2023/08/26 04:01:37;;;;;;;;;1.25;1.25;;;;;;;;5030737;28;8823;-80
2023/08/26 04:04:05;;;;;;;;;1.25;1.25;;;;;;;;5031796;28;8856;-79
2023/08/26 04:06:35;;;;;;;;;1.00;1.00;;;;;;;;5031895;28;8882;-80
2023/08/26 04:09:03;;;;;;;;;1.00;1.00;;;;;;;;5030395;28;8941;-79
2023/08/26 04:11:33;;;;;;;;;1.00;1.00;;;;;;;;5030156;28;8860;-80
2023/08/26 04:14:05;;;;;;;;;2.00;2.00;;;;;;;;5030250;28;8950;-80
2023/08/26 04:16:32;;;;;;;;;1.00;1.00;;;;;;;;5030156;28;9626;-82
2023/08/26 04:18:59;;;;;;;;;2.00;1.75;;;;;;;;5030207;28;8957;-79
2023/08/26 04:21:27;;;;;;;;;1.25;1.25;;;;;;;;5029488;28;8876;-79
2023/08/26 04:23:54;;;;;;;;;3.00;1.25;;;;;;;;5029840;28;8864;-79
2023/08/26 04:26:21;;;;;;;;;3.00;1.00;;;;;;;;5029331;28;8883;-79
2023/08/26 04:28:48;;;;;;;;;1.00;1.00;;;;;;;;5030224;28;8901;-78
2023/08/26 04:31:17;;;;;;;;;1.00;1.00;;;;;;;;5028769;28;8870;-79
2023/08/26 04:33:44;;;;;;;;;3.00;1.00;;;;;;;;5030178;28;8856;-81
2023/08/26 04:36:14;;;;;;;;;1.00;1.00;;;;;;;;5027356;28;8949;-70
2023/08/26 04:38:42;;;;;;;;;1.00;1.00;;;;;;;;5023826;28;8957;-69
2023/08/26 04:41:09;;;;;;;;;1.00;1.00;;;;;;;;5029599;28;8848;-78
2023/08/26 04:43:36;;;;;;;;;1.50;1.25;;;;;;;;5030579;28;8921;-75
2023/08/26 04:46:04;;;;;;;;;1.75;1.75;;;;;;;;5029422;28;8852;-71
2023/08/26 04:48:33;;;;;;;;;2.00;2.00;;;;;;;;5029907;28;8864;-71
2023/08/26 04:51:04;;;;;;;;;1.00;1.00;;;;;;;;5029209;28;8899;-71
2023/08/26 04:53:31;;;;;;;;;2.50;1.00;;;;;;;;5029629;28;8909;-72
2023/08/26 04:55:59;;;;;;;;;1.25;1.25;;;;;;;;5028530;28;8876;-72
2023/08/26 04:58:26;;;;;;;;;1.00;1.00;;;;;;;;4995592;28;8852;-71
2023/08/26 05:00:53;;;;;;;;;2.75;1.75;;;;;;;;5030877;28;8809;-75
2023/08/26 05:03:20;;;;;;;;;2.00;2.00;;;;;;;;5031443;28;8856;-77
2023/08/26 05:05:49;;;;;;;;;1.00;1.00;;;;;;;;5032239;28;8909;-71
2023/08/26 05:08:16;;;;;;;;;0.00;0.00;;;;;;;;5032359;28;8860;-74
2023/08/26 05:10:43;;;;;;;;;1.00;1.00;;;;;;;;5021105;28;9658;-71
2023/08/26 05:13:10;;;;;;;;;0.25;0.25;;;;;;;;5028706;28;8848;-72
2023/08/26 05:15:38;;;;;;;;;1.00;1.00;;;;;;;;5029373;28;9638;-73
2023/08/26 05:18:05;;;;;;;;;1.00;1.00;;;;;;;;5028348;28;9677;-72
2023/08/26 05:20:34;;;;;;;;;1.00;1.00;;;;;;;;5029065;28;8878;-72
2023/08/26 05:23:05;;;;;;;;;1.00;1.00;;;;;;;;5028426;28;8874;-72
2023/08/26 05:25:32;;;;;;;;;1.75;1.75;;;;;;;;5028866;28;8875;-72
2023/08/26 05:28:00;;;;;;;;;1.00;1.00;;;;;;;;5028422;28;9702;-71
2023/08/26 05:30:27;;;;;;;;;1.50;1.50;;;;;;;;5027771;28;8799;-71
2023/08/26 05:32:54;;;;;;;;;0.00;0.00;;;;;;;;5027968;28;8910;-71
2023/08/26 05:35:21;;;;;;;;;3.00;1.00;;;;;;;;5028568;28;8860;-72
2023/08/26 05:37:48;;;;;;;;;4.00;2.25;;;;;;;;5028403;28;9623;-74
2023/08/26 05:40:17;;;;;;;;;1.25;1.25;;;;;;;;5028388;28;8864;-71
2023/08/26 05:42:44;;;;;;;;;3.00;3.00;;;;;;;;5027820;28;9689;-71
2023/08/26 05:45:11;;;;;;;;;2.50;2.50;;;;;;;;5027981;28;9697;-72
2023/08/26 05:47:39;;;;;;;;;3.00;3.00;;;;;;;;5028083;28;8852;-71
2023/08/26 05:50:07;;;;;;;;;3.00;2.50;;;;;;;;5027272;28;8902;-71
2023/08/26 05:52:34;;;;;;;;;1.00;1.00;;;;;;;;5027971;28;8868;-75
2023/08/26 05:55:04;;;;;;;;;2.50;2.50;;;;;;;;5027989;28;8943;-72
2023/08/26 05:57:33;;;;;;;;;2.00;2.00;;;;;;;;5027770;28;8845;-71
2023/08/26 06:00:01;;;;;;;;;2.75;2.75;;;;;;;;5028330;28;8909;-74
2023/08/26 06:02:28;;;;;;;;;1.50;1.50;;;;;;;;5027437;28;8843;-90
2023/08/26 06:04:55;;;;;;;;;3.00;3.00;;;;;;;;5028574;28;8856;-73
2023/08/26 06:07:22;;;;;;;;;2.50;2.50;;;;;;;;5028004;28;8885;-87
2023/08/26 06:09:49;;;;;;;;;2.00;2.00;;;;;;;;5028534;28;8871;-83
2023/08/26 06:12:16;;;;;;;;;4.00;4.00;;;;;;;;5027606;28;8856;-72
2023/08/26 06:14:45;;;;;;;;;1.25;1.25;;;;;;;;5028387;28;8941;-71
2023/08/26 06:17:12;;;;;;;;;2.00;2.00;;;;;;;;5027806;28;8856;-71
2023/08/26 06:19:39;;;;;;;;;3.00;3.00;;;;;;;;5027979;28;8848;-71
2023/08/26 06:22:07;;;;;;;;;3.00;3.00;;;;;;;;5027446;28;8856;-72
2023/08/26 06:24:34;;;;;;;;;2.25;2.25;;;;;;;;5027306;28;8884;-73
2023/08/26 06:27:06;;;;;;;;;1.75;1.75;;;;;;;;5027666;28;8841;-75
2023/08/26 06:29:33;;;;;;;;;3.00;3.00;;;;;;;;5027699;28;8880;-72
2023/08/26 06:32:04;;;;;;;;;2.75;2.75;;;;;;;;5027959;28;8793;-70
2023/08/26 06:34:32;;;;;;;;;3.00;3.00;;;;;;;;5029819;28;8875;-73
2023/08/26 06:36:59;;;;;;;;;1.50;1.00;;;;;;;;5021817;28;8860;-74
2023/08/26 06:39:26;;;;;;;;;1.00;1.00;;;;;;;;5026697;28;8876;-72
2023/08/26 06:41:53;;;;;;;;;3.25;3.25;;;;;;;;5030686;28;8990;-71
2023/08/26 06:44:20;;;;;;;;;1.75;1.75;;;;;;;;5029313;28;8878;-71
2023/08/26 06:46:50;;;;;;;;;1.25;1.25;;;;;;;;5028788;28;8902;-72
2023/08/26 06:49:18;;;;;;;;;1.50;1.25;;;;;;;;5026780;28;8975;-71
2023/08/26 06:51:45;;;;;;;;;0.25;0.25;;;;;;;;5027314;28;8976;-74
2023/08/26 06:54:13;;;;;;;;;2.00;2.00;;;;;;;;5026609;28;9618;-70
2023/08/26 06:56:40;;;;;;;;;1.75;1.75;;;;;;;;5027323;28;8866;-71
2023/08/26 06:59:10;;;;;;;;;1.00;1.00;;;;;;;;5026229;28;8864;-70
2023/08/26 07:01:37;;;;;;;;;3.25;3.00;;;;;;;;5014810;28;8807;-69
2023/08/26 07:04:06;;;;;;;;;4.00;2.25;;;;;;;;5027264;28;8832;-70
2023/08/26 07:06:36;;;;;;;;;1.00;1.00;;;;;;;;5027051;28;8870;-71
2023/08/26 07:09:05;;;;;;;;;1.50;1.50;;;;;;;;5015018;28;8849;-74
2023/08/26 07:11:38;;;;;;;;;3.25;2.00;;;;;;;;5026908;28;8886;-70
2023/08/26 07:14:05;;;;;;;;;1.00;1.00;;;;;;;;5028944;28;8868;-72
2023/08/26 07:16:35;;;;;;;;;2.00;2.00;;;;;;;;5030661;28;8880;-70
2023/08/26 07:19:05;;;;;;;;;0.75;0.75;;;;;;;;5031459;28;8985;-71
2023/08/26 07:21:34;;;;;;;;;2.25;1.25;;;;;;;;5030692;28;8998;-73
2023/08/26 07:24:04;;;;;;;;;4.25;3.75;;;;;;;;5031093;28;8860;-74
2023/08/26 07:26:32;;;;;;;;;1.50;1.50;;;;;;;;5030671;28;8978;-72
2023/08/26 07:29:00;;;;;;;;;1.75;1.75;;;;;;;;5030683;28;8887;-72
2023/08/26 07:31:27;;;;;;;;;1.00;1.00;;;;;;;;5029195;28;8825;-71
2023/08/26 07:33:55;;;;;;;;;1.00;1.00;;;;;;;;5031128;28;8898;-70
2023/08/26 07:36:24;;;;;;;;;2.00;1.00;;;;;;;;5030562;28;8906;-73
2023/08/26 07:38:52;;;;;;;;;0.50;0.50;;;;;;;;5030900;28;8867;-73
2023/08/26 07:41:20;;;;;;;;;0.25;0.25;;;;;;;;5030169;28;8931;-72
2023/08/26 07:43:47;;;;;;;;;0.50;0.50;;;;;;;;5030981;28;8890;-70
2023/08/26 07:46:15;;;;;;;;;2.00;2.00;;;;;;;;5029478;28;8893;-70
2023/08/26 07:48:42;;;;;;;;;0.00;0.00;;;;;;;;5031182;28;8888;-71
2023/08/26 07:51:09;;;;;;;;;0.75;0.75;;;;;;;;5030072;28;9484;-70
2023/08/26 07:53:37;;;;;;;;;1.00;1.00;;;;;;;;5030335;28;8890;-71
2023/08/26 07:56:05;;;;;;;;;0.75;0.75;;;;;;;;5029841;28;8852;-70
2023/08/26 07:58:33;;;;;;;;;1.50;1.00;;;;;;;;5029886;28;9622;-70
2023/08/26 08:01:00;;;;;;;;;0.75;0.75;;;;;;;;5029590;28;8801;-73
2023/08/26 08:03:27;;;;;;;;;0.50;0.50;;;;;;;;5030054;28;8856;-72
2023/08/26 08:05:54;;;;;;;;;1.25;1.25;;;;;;;;5030282;28;8838;-74
2023/08/26 08:08:22;;;;;;;;;0.25;0.25;;;;;;;;5029896;28;8982;-71
2023/08/26 08:10:49;;;;;;;;;0.75;0.75;;;;;;;;5031765;28;8866;-77
2023/08/26 08:13:18;;;;;;;;;1.00;1.00;;;;;;;;5032343;28;8868;-72
2023/08/26 08:15:45;;;;;;;;;0.00;0.00;;;;;;;;5033925;28;8974;-72
2023/08/26 08:18:12;;;;;;;;;0.00;0.00;;;;;;;;5031676;28;8959;-73
2023/08/26 08:20:40;;;;;;;;;0.00;0.00;;;;;;;;5032958;28;8878;-72
2023/08/26 08:23:07;;;;;;;;;0.20;0.20;;;;;;;;5030982;28;10259;-72
2023/08/26 08:25:34;;;;;;;;;0.40;0.40;;;;;;;;5029309;28;8958;-70
2023/08/26 08:28:02;;;;;;;;;0.80;0.00;;;;;;;;5029789;28;8837;-74
2023/08/26 08:30:33;;;;;;;;;0.20;0.20;;;;;;;;5029133;28;8778;-71
2023/08/26 08:33:03;;;;;;;;;0.00;0.00;;;;;;;;5029276;28;8867;-72
2023/08/26 08:35:37;;;;;;;;;1.00;1.00;;;;;;;;5029690;28;8852;-71
2023/08/26 08:38:04;;;;;;;;;0.00;0.00;;;;;;;;5018295;28;8844;-72
2023/08/26 08:40:32;;;;;;;;;0.00;0.00;;;;;;;;5029467;28;8874;-75
2023/08/26 08:43:00;;;;;;;;;1.00;1.00;;;;;;;;5029101;28;8865;-77
2023/08/26 08:45:27;;;;;;;;;0.00;0.00;;;;;;;;5029564;28;8868;-72
2023/08/26 08:47:56;;;;;;;;;0.00;0.00;;;;;;;;5028638;28;8899;-72
2023/08/26 08:50:24;;;;;;;;;0.00;0.00;;;;;;;;5028847;28;8884;-72
2023/08/26 08:52:56;;;;;;;;;0.00;0.00;;;;;;;;5022564;28;8870;-72
2023/08/26 08:55:23;;;;;;;;;0.40;0.00;;;;;;;;5024559;28;9688;-73
2023/08/26 08:57:53;;;;;;;;;0.60;0.60;;;;;;;;5029190;28;8856;-75
2023/08/26 09:00:20;;;;;;;;;2.00;0.00;;;;;;;;5027937;28;8901;-72
2023/08/26 09:02:48;;;;;;;;;0.00;0.00;;;;;;;;5028687;28;8880;-72
2023/08/26 09:05:17;;;;;;;;;0.00;0.00;;;;;;;;5028081;28;8856;-72
2023/08/26 09:07:44;;;;;;;;;0.00;0.00;;;;;;;;5028662;28;8882;-72
2023/08/26 09:10:12;;;;;;;;;0.00;0.00;;;;;;;;5027701;28;8886;-72
2023/08/26 09:12:39;;;;;;;;;0.20;0.20;;;;;;;;5028620;28;8860;-72
2023/08/26 09:15:07;;;;;;;;;0.00;0.00;;;;;;;;5027335;28;8860;-73
2023/08/26 09:17:35;;;;;;;;;0.00;0.00;;;;;;;;5028248;28;8898;-72
2023/08/26 09:20:05;;;;;;;;;0.00;0.00;;;;;;;;5028305;28;8856;-72
2023/08/26 09:22:34;;;;;;;;;0.00;0.00;;;;;;;;5028612;28;8856;-73
2023/08/26 09:25:03;;;;;;;;;0.00;0.00;;;;;;;;5027692;28;8930;-77
2023/08/26 09:27:34;;;;;;;;;0.00;0.00;;;;;;;;5028326;28;8878;-71
2023/08/26 09:30:04;;;;;;;;;0.00;0.00;;;;;;;;5025227;28;9643;-73
2023/08/26 09:32:34;;;;;;;;;0.00;0.00;;;;;;;;5027833;28;9620;-72
2023/08/26 09:35:12;;;;;;;;;0.00;0.00;;;;;;;;5028271;28;9686;-73
2023/08/26 09:37:42;;;;;;;;;0.00;0.00;;;;;;;;5026452;28;8840;-71
2023/08/26 09:40:13;;;;;;;;;0.60;0.60;;;;;;;;5018859;28;8864;-75
2023/08/26 09:42:40;;;;;;;;;0.00;0.00;;;;;;;;5027851;28;8899;-72
2023/08/26 09:45:09;;;;;;;;;0.00;0.00;;;;;;;;5028549;28;8884;-74
2023/08/26 09:47:38;;;;;;;;;0.00;0.00;;;;;;;;5028773;28;8925;-72
2023/08/26 09:50:06;;;;;;;;;0.00;0.00;;;;;;;;5029764;28;8875;-72
2023/08/26 09:52:44;;;;;;;;;1.80;0.00;;;;;;;;5030229;28;8856;-71
2023/08/26 09:55:11;;;;;;;;;0.00;0.00;;;;;;;;5030426;28;8856;-71
2023/08/26 09:57:39;;;;;;;;;0.00;0.00;;;;;;;;5031589;28;8957;-72
2023/08/26 10:00:10;;;;;;;;;1.00;1.00;;;;;;;;5029369;28;9656;-72
2023/08/26 10:02:39;;;;;;;;;0.00;0.00;;;;;;;;5016676;28;8888;-73
2023/08/26 10:05:13;;;;;;;;;0.40;0.00;;;;;;;;5027629;28;9015;-72
2023/08/26 10:07:40;;;;;;;;;0.00;0.00;;;;;;;;5027843;28;8889;-72
2023/08/26 10:10:14;;;;;;;;;0.00;0.00;;;;;;;;5027474;28;8848;-73
2023/08/26 10:12:43;;;;;;;;;0.00;0.00;;;;;;;;5028739;28;8988;-73
2023/08/26 10:15:13;;;;;;;;;0.20;0.00;;;;;;;;5027919;28;8886;-74
2023/08/26 10:17:46;;;;;;;;;0.00;0.00;;;;;;;;5027937;28;8872;-80
2023/08/26 10:20:13;;;;;;;;;0.00;0.00;;;;;;;;5027139;28;8934;-72
2023/08/26 10:22:40;;;;;;;;;0.00;0.00;;;;;;;;5027786;28;8859;-72
2023/08/26 10:25:13;;;;;;;;;0.00;0.00;;;;;;;;5027203;28;8866;-77
2023/08/26 10:27:42;;;;;;;;;0.00;0.00;;;;;;;;5027603;28;8881;-74
2023/08/26 10:30:10;;;;;;;;;0.00;0.00;;;;;;;;5020186;28;9266;-72
2023/08/26 10:32:43;;;;;;;;;0.00;0.00;;;;;;;;5023006;28;8860;-72
2023/08/26 10:35:12;;;;;;;;;0.00;0.00;;;;;;;;5027583;28;8848;-72
2023/08/26 10:37:40;;;;;;;;;0.00;0.00;;;;;;;;5027002;28;10058;-71
2023/08/26 10:40:12;;;;;;;;;0.00;0.00;;;;;;;;5027327;28;8848;-72
2023/08/26 10:42:40;;;;;;;;;0.00;0.00;;;;;;;;5027472;28;8874;-75
2023/08/26 10:45:14;;;;;;;;;0.00;0.00;;;;;;;;5027464;28;8863;-75
2023/08/26 10:47:44;;;;;;;;;0.00;0.00;;;;;;;;5027512;28;8840;-75
2023/08/26 10:50:19;;;;;;;;;0.00;0.00;;;;;;;;5028136;28;8860;-72
2023/08/26 10:52:47;;;;;;;;;0.00;0.00;;;;;;;;5016466;28;8892;-72
2023/08/26 10:55:20;;;;;;;;;0.00;0.00;;;;;;;;5027146;28;8856;-72
2023/08/26 10:58:12;;;;;;;;;0.00;0.00;;;;;;;;5028258;28;8967;-72
2023/08/26 11:00:40;;;;;;;;;0.00;0.00;;;;;;;;5026675;28;9880;-77
2023/08/26 11:03:08;;;;;;;;;0.00;0.00;;;;;;;;5027516;28;8856;-73
2023/08/26 11:05:39;;;;;;;;;0.00;0.00;;;;;;;;5027575;28;8868;-73
2023/08/26 11:08:07;;;;;;;;;0.00;0.00;;;;;;;;5027386;28;9694;-72
2023/08/26 11:10:39;;;;;;;;;0.20;0.00;;;;;;;;5026673;28;9654;-71
2023/08/26 11:13:06;;;;;;;;;0.20;0.20;;;;;;;;5015466;28;8859;-73
2023/08/26 11:15:37;;;;;;;;;0.00;0.00;;;;;;;;5027499;28;8878;-71
2023/08/26 11:18:05;;;;;;;;;0.20;0.20;;;;;;;;5024890;28;9742;-71
2023/08/26 11:20:33;;;;;;;;;0.40;0.20;;;;;;;;5027848;28;8862;-72
2023/08/26 11:23:01;;;;;;;;;0.00;0.00;;;;;;;;5027502;28;8911;-73
2023/08/26 11:25:29;;;;;;;;;0.20;0.20;;;;;;;;5029053;28;8878;-70
2023/08/26 11:28:03;;;;;;;;;0.00;0.00;;;;;;;;5029960;28;8874;-71
2023/08/26 11:30:33;;;;;;;;;0.00;0.00;;;;;;;;5030318;28;8796;-73
2023/08/26 11:33:00;;;;;;;;;0.00;0.00;;;;;;;;5030423;28;8860;-70
2023/08/26 11:35:28;;;;;;;;;0.20;0.20;;;;;;;;5030032;28;8872;-71
2023/08/26 11:37:55;;;;;;;;;0.00;0.00;;;;;;;;5027278;28;8840;-74
2023/08/26 11:40:24;;;;;;;;;0.00;0.00;;;;;;;;5027008;28;9752;-74
2023/08/26 11:42:51;;;;;;;;;0.40;0.00;;;;;;;;5026705;28;9677;-73
2023/08/26 11:45:20;;;;;;;;;0.00;0.00;;;;;;;;5027297;28;9691;-71
2023/08/26 11:47:47;;;;;;;;;1.00;1.00;;;;;;;;5026895;28;9102;-73
2023/08/26 11:50:14;;;;;;;;;0.00;0.00;;;;;;;;5027016;28;8922;-71
2023/08/26 11:52:42;;;;;;;;;0.00;0.00;;;;;;;;5026601;28;8906;-70
2023/08/26 11:55:10;;;;;;;;;0.00;0.00;;;;;;;;5026920;28;8852;-70
2023/08/26 11:57:40;;;;;;;;;0.00;0.00;;;;;;;;5026475;28;8934;-71
2023/08/26 12:00:10;;;;;;;;;0.00;0.00;;;;;;;;5026628;28;9674;-71
2023/08/26 12:02:39;;;;;;;;;0.00;0.00;;;;;;;;5030402;28;8859;-72
2023/08/26 12:05:06;;;;;;;;;0.00;0.00;;;;;;;;5029545;28;8884;-76
2023/08/26 12:07:34;;;;;;;;;0.00;0.00;;;;;;;;5030427;28;8844;-72
2023/08/26 12:10:10;;;;;;;;;1.20;0.00;;;;;;;;5030410;28;8962;-72
2023/08/26 12:12:37;;;;;;;;;0.00;0.00;;;;;;;;5030782;28;8860;-76
2023/08/26 12:15:09;;;;;;;;;1.20;0.00;;;;;;;;5029490;28;9637;-72
2023/08/26 12:17:45;;;;;;;;;0.00;0.00;;;;;;;;5030158;28;8917;-72
2023/08/26 12:20:23;;;;;;;;;0.00;0.00;;;;;;;;5028754;28;8886;-72
2023/08/26 12:22:51;;;;;;;;;0.20;0.20;;;;;;;;5029888;28;8864;-72
2023/08/26 12:25:19;;;;;;;;;0.60;0.60;;;;;;;;5018009;28;8860;-72
2023/08/26 12:27:47;;;;;;;;;0.40;0.40;;;;;;;;5030387;28;8878;-71
2023/08/26 12:30:14;;;;;;;;;1.00;1.00;;;;;;;;5029559;28;8857;-79
2023/08/26 12:32:43;;;;;;;;;0.00;0.00;;;;;;;;5029689;28;9720;-72
2023/08/26 12:35:10;;;;;;;;;2.20;2.20;;;;;;;;5029859;28;8858;-76
2023/08/26 12:37:37;;;;;;;;;0.60;0.60;;;;;;;;5018564;28;8966;-75
2023/08/26 12:40:05;;;;;;;;;0.00;0.00;;;;;;;;5029663;28;8886;-73
2023/08/26 12:42:33;;;;;;;;;1.20;0.00;;;;;;;;5029920;28;8846;-75
2023/08/26 12:45:01;;;;;;;;;1.00;0.00;;;;;;;;5030596;28;8940;-74
2023/08/26 12:47:28;;;;;;;;;0.00;0.00;;;;;;;;5029122;28;8882;-72
2023/08/26 12:49:58;;;;;;;;;0.80;0.80;;;;;;;;5029827;28;8864;-73
2023/08/26 12:52:27;;;;;;;;;0.00;0.00;;;;;;;;5029321;28;9634;-72
2023/08/26 12:54:54;;;;;;;;;0.20;0.20;;;;;;;;5029748;28;8871;-73
2023/08/26 12:57:22;;;;;;;;;0.00;0.00;;;;;;;;5029431;28;8976;-74
2023/08/26 12:59:49;;;;;;;;;0.20;0.20;;;;;;;;5030946;28;8852;-76
2023/08/26 13:02:16;;;;;;;;;0.00;0.00;;;;;;;;5029890;28;8797;-73
2023/08/26 13:04:44;;;;;;;;;0.00;0.00;;;;;;;;5032714;28;8867;-74
2023/08/26 13:07:12;;;;;;;;;0.00;0.00;;;;;;;;5032798;28;8980;-72
2023/08/26 13:09:39;;;;;;;;;0.00;0.00;;;;;;;;5033632;28;8860;-73
2023/08/26 13:12:07;;;;;;;;;0.60;0.60;;;;;;;;5033902;28;9709;-73
2023/08/26 13:14:34;;;;;;;;;0.00;0.00;;;;;;;;5029752;28;8862;-76
2023/08/26 13:17:02;;;;;;;;;0.00;0.00;;;;;;;;5028706;28;8845;-82
2023/08/26 13:19:31;;;;;;;;;0.00;0.00;;;;;;;;5029571;28;8859;-81
2023/08/26 13:21:58;;;;;;;;;0.00;0.00;;;;;;;;5028591;28;8991;-81
2023/08/26 13:24:26;;;;;;;;;0.00;0.00;;;;;;;;5028744;28;8906;-77
2023/08/26 13:26:54;;;;;;;;;1.00;0.00;;;;;;;;5028864;28;8890;-72
2023/08/26 13:29:21;;;;;;;;;0.00;0.00;;;;;;;;5031144;28;8882;-75
2023/08/26 13:31:48;;;;;;;;;1.20;0.00;;;;;;;;5030701;28;8813;-74
2023/08/26 13:34:16;;;;;;;;;0.00;0.00;;;;;;;;5030199;28;8870;-80
2023/08/26 13:36:43;;;;;;;;;0.00;0.00;;;;;;;;5024995;28;8848;-77
2023/08/26 13:39:10;;;;;;;;;0.00;0.00;;;;;;;;5024551;28;8882;-74
2023/08/26 13:41:38;;;;;;;;;0.00;0.00;;;;;;;;5030029;28;8868;-77
2023/08/26 13:44:06;;;;;;;;;0.80;0.00;;;;;;;;5029004;28;8879;-72
2023/08/26 13:46:33;;;;;;;;;0.80;0.00;;;;;;;;5029392;28;8885;-73
2023/08/26 13:49:01;;;;;;;;;0.40;0.40;;;;;;;;5028299;28;8824;-71
2023/08/26 13:51:28;;;;;;;;;0.00;0.00;;;;;;;;5028699;28;8868;-71
2023/08/26 13:53:56;;;;;;;;;0.00;0.00;;;;;;;;5028145;28;8845;-71
2023/08/26 13:56:23;;;;;;;;;0.00;0.00;;;;;;;;5027741;28;8902;-72
2023/08/26 13:58:51;;;;;;;;;0.00;0.00;;;;;;;;5028142;28;8844;-76
2023/08/26 14:01:19;;;;;;;;;0.00;0.00;;;;;;;;5027561;28;8813;-70
2023/08/26 14:03:46;;;;;;;;;0.00;0.00;;;;;;;;5027823;28;8849;-72
2023/08/26 14:06:13;;;;;;;;;0.00;0.00;;;;;;;;5027809;28;8861;-71
2023/08/26 14:08:40;;;;;;;;;0.00;0.00;;;;;;;;5027904;28;8860;-71
2023/08/26 14:11:07;;;;;;;;;0.00;0.00;;;;;;;;5028142;28;8886;-71
2023/08/26 14:13:34;;;;;;;;;0.00;0.00;;;;;;;;5027399;28;8879;-71
2023/08/26 14:16:03;;;;;;;;;0.00;0.00;;;;;;;;5028643;28;8876;-72
2023/08/26 14:18:30;;;;;;;;;0.00;0.00;;;;;;;;5027857;28;8974;-71
2023/08/26 14:20:58;;;;;;;;;0.00;0.00;;;;;;;;5028171;28;8914;-73
2023/08/26 14:23:25;;;;;;;;;0.00;0.00;;;;;;;;5026877;28;8906;-73
2023/08/26 14:25:52;;;;;;;;;0.00;0.00;;;;;;;;5028083;28;8922;-72
2023/08/26 14:28:19;;;;;;;;;0.00;0.00;;;;;;;;5027666;28;8864;-78
2023/08/26 14:30:46;;;;;;;;;0.00;0.00;;;;;;;;5027384;28;8784;-74
2023/08/26 14:33:17;;;;;;;;;0.00;0.00;;;;;;;;5027468;28;9694;-77
2023/08/26 14:35:50;;;;;;;;;0.00;0.00;;;;;;;;5028133;28;8880;-73
2023/08/26 14:38:17;;;;;;;;;0.00;0.00;;;;;;;;5019004;28;8844;-72
2023/08/26 14:40:46;;;;;;;;;0.00;0.00;;;;;;;;5029831;28;8902;-73
2023/08/26 14:43:14;;;;;;;;;0.00;0.00;;;;;;;;5029919;28;8870;-73
2023/08/26 14:45:42;;;;;;;;;0.00;0.00;;;;;;;;5029576;28;8876;-72
2023/08/26 14:48:09;;;;;;;;;0.00;0.00;;;;;;;;5031520;28;8871;-72
2023/08/26 14:50:38;;;;;;;;;0.00;0.00;;;;;;;;5029592;28;9858;-73
2023/08/26 14:53:06;;;;;;;;;0.00;0.00;;;;;;;;5027329;28;8882;-72
2023/08/26 14:55:33;;;;;;;;;0.00;0.00;;;;;;;;5027177;28;8844;-72
2023/08/26 14:58:02;;;;;;;;;0.00;0.00;;;;;;;;5027556;28;8832;-72
2023/08/26 15:00:29;;;;;;;;;0.00;0.00;;;;;;;;5026583;28;8784;-72
2023/08/26 15:02:57;;;;;;;;;0.00;0.00;;;;;;;;5028585;28;8898;-80